createdAt,value
2018-11-13T00:02:00.427Z,45.00
2018-11-13T00:04:28.917Z,47.10
2018-11-13T00:06:57.249Z,37.00
2018-11-13T00:09:25.675Z,43.53
2018-11-13T00:11:54.115Z,41.63
2018-11-13T00:14:22.566Z,39.47
2018-11-13T00:16:51.030Z,40.50
2018-11-13T00:19:19.468Z,39.57
2018-11-13T00:21:47.843Z,41.77
2018-11-13T00:24:19.033Z,39.43
2018-11-13T00:26:48.131Z,33.50
2018-11-13T00:29:16.549Z,36.30
2018-11-13T00:31:45.103Z,31.50
2018-11-13T00:34:13.892Z,37.80
2018-11-13T00:36:42.861Z,33.43
2018-11-13T00:39:13.235Z,30.53
2018-11-13T00:41:41.580Z,35.67
2018-11-13T00:44:10.606Z,34.13
2018-11-13T00:46:39.342Z,36.67
2018-11-13T00:49:07.652Z,27.90
2018-11-13T00:51:36.977Z,29.07
2018-11-13T00:54:05.482Z,30.77
2018-11-13T00:56:33.952Z,32.33
2018-11-13T00:59:02.551Z,27.27
2018-11-13T01:01:30.965Z,27.33
2018-11-13T01:04:00.529Z,26.33
2018-11-13T01:06:29.522Z,34.50
2018-11-13T01:08:59.171Z,29.77
2018-11-13T01:11:28.446Z,30.23
2018-11-13T01:13:56.737Z,28.10
2018-11-13T01:16:25.078Z,36.23
2018-11-13T01:18:53.654Z,31.43
2018-11-13T01:21:22.006Z,37.63
2018-11-13T01:23:50.463Z,30.80
2018-11-13T01:26:18.847Z,29.83
2018-11-13T01:28:48.199Z,28.53
2018-11-13T01:31:16.817Z,32.43
2018-11-13T01:33:45.225Z,32.67
2018-11-13T01:36:13.530Z,31.50
2018-11-13T01:38:41.968Z,33.83
2018-11-13T01:41:10.404Z,34.53
2018-11-13T01:43:39.395Z,31.17
2018-11-13T01:46:07.851Z,31.00
2018-11-13T01:48:36.403Z,30.73
2018-11-13T01:51:04.889Z,35.50
2018-11-13T01:53:33.253Z,33.83
2018-11-13T01:56:02.296Z,32.03
2018-11-13T01:58:30.702Z,32.40
2018-11-13T02:00:59.708Z,32.90
2018-11-13T02:03:28.090Z,35.70
2018-11-13T02:05:56.446Z,33.10
2018-11-13T02:08:24.799Z,35.27
2018-11-13T02:10:54.750Z,38.67
2018-11-13T02:13:23.081Z,39.53
2018-11-13T02:15:52.390Z,35.90
2018-11-13T02:18:22.971Z,37.17
2018-11-13T02:20:51.416Z,37.33
2018-11-13T02:23:19.807Z,37.17
2018-11-13T02:25:48.256Z,34.43
2018-11-13T02:28:16.620Z,29.13
2018-11-13T02:30:45.005Z,40.97
2018-11-13T02:33:13.875Z,34.47
2018-11-13T02:35:42.493Z,36.80
2018-11-13T02:38:10.821Z,37.13
2018-11-13T02:40:39.918Z,40.53
2018-11-13T02:43:08.303Z,38.77
2018-11-13T02:45:36.747Z,40.83
2018-11-13T02:48:05.465Z,39.70
2018-11-13T02:50:33.821Z,38.37
2018-11-13T02:53:02.177Z,40.90
2018-11-13T02:55:30.508Z,41.13
2018-11-13T02:57:59.008Z,39.23
2018-11-13T03:00:27.314Z,39.80
2018-11-13T03:02:56.300Z,42.40
2018-11-13T03:05:24.746Z,43.07
2018-11-13T03:07:53.144Z,46.80
2018-11-13T03:10:22.545Z,42.93
2018-11-13T03:12:51.019Z,44.20
2018-11-13T03:15:20.127Z,47.40
2018-11-13T03:17:49.573Z,45.43
2018-11-13T03:20:19.072Z,43.00
2018-11-13T03:22:48.101Z,44.50
2018-11-13T03:25:21.303Z,47.60
2018-11-13T03:27:49.709Z,53.10
2018-11-13T03:30:23.871Z,49.40
2018-11-13T03:32:53.188Z,49.80
2018-11-13T03:35:21.579Z,55.50
2018-11-13T03:37:49.995Z,50.47
2018-11-13T03:40:18.465Z,49.17
2018-11-13T03:42:48.479Z,57.90
2018-11-13T03:45:21.434Z,55.23
2018-11-13T03:47:49.987Z,57.87
2018-11-13T03:50:20.466Z,52.77
2018-11-13T03:52:50.353Z,54.73
2018-11-13T03:55:19.503Z,54.90
2018-11-13T03:57:48.805Z,47.03
2018-11-13T04:00:20.647Z,51.43
2018-11-13T04:02:49.728Z,56.00
2018-11-13T04:05:20.592Z,56.30
2018-11-13T04:07:51.426Z,56.33
2018-11-13T04:10:21.137Z,49.60
2018-11-13T04:12:49.658Z,53.33
2018-11-13T04:15:20.707Z,50.90
2018-11-13T04:17:50.807Z,50.87
2018-11-13T04:20:20.336Z,50.77
2018-11-13T04:22:48.993Z,47.10
2018-11-13T04:25:18.070Z,51.07
2018-11-13T04:27:46.490Z,46.03
2018-11-13T04:30:16.096Z,44.20
2018-11-13T04:32:44.593Z,42.53
2018-11-13T04:35:17.290Z,47.93
2018-11-13T04:37:45.793Z,42.43
2018-11-13T04:40:16.480Z,43.57
2018-11-13T04:42:46.828Z,39.40
2018-11-13T04:45:17.224Z,50.50
2018-11-13T04:47:47.064Z,45.37
2018-11-13T04:50:16.402Z,44.40
2018-11-13T04:52:44.984Z,48.20
2018-11-13T04:55:13.625Z,49.07
2018-11-13T04:57:42.867Z,53.53
2018-11-13T05:00:15.970Z,46.03
2018-11-13T05:02:45.085Z,49.23
2018-11-13T05:05:14.501Z,49.23
2018-11-13T05:07:45.529Z,52.30
2018-11-13T05:10:14.050Z,51.83
2018-11-13T05:12:43.418Z,48.40
2018-11-13T05:15:11.840Z,46.57
2018-11-13T05:17:40.932Z,53.70
2018-11-13T05:20:10.585Z,49.73
2018-11-13T05:22:39.131Z,48.07
2018-11-13T05:25:10.501Z,45.90
2018-11-13T05:27:39.565Z,47.90
2018-11-13T05:30:22.009Z,46.43
2018-11-13T05:32:51.148Z,42.87
2018-11-13T05:35:20.502Z,45.93
2018-11-13T05:37:49.835Z,49.13
2018-11-13T05:40:20.454Z,48.67
2018-11-13T05:42:48.843Z,43.20
2018-11-13T05:45:19.412Z,46.13
2018-11-13T05:47:47.752Z,42.70
2018-11-13T05:50:16.875Z,38.67
2018-11-13T05:52:46.383Z,39.13
2018-11-13T05:55:16.072Z,37.60
2018-11-13T05:57:45.036Z,37.10
2018-11-13T06:00:30.975Z,34.90
2018-11-13T06:02:59.827Z,30.07
2018-11-13T06:05:28.171Z,31.20
2018-11-13T06:07:56.739Z,30.90
2018-11-13T06:10:24.995Z,30.60
2018-11-13T06:12:53.267Z,31.67
2018-11-13T06:15:21.985Z,33.57
2018-11-13T06:17:50.320Z,29.00
2018-11-13T06:20:18.677Z,26.83
2018-11-13T06:22:47.295Z,29.17
2018-11-13T06:25:16.732Z,28.33
2018-11-13T06:27:46.273Z,27.60
2018-11-13T06:30:17.562Z,26.33
2018-11-13T06:32:46.358Z,25.73
2018-11-13T06:35:14.661Z,27.23
2018-11-13T06:37:43.076Z,30.70
2018-11-13T06:40:11.604Z,29.20
2018-11-13T06:42:40.300Z,28.93
2018-11-13T06:45:11.789Z,27.23
2018-11-13T06:47:40.483Z,24.00
2018-11-13T06:50:09.985Z,24.07
2018-11-13T06:52:38.300Z,23.30
2018-11-13T06:55:13.116Z,23.67
2018-11-13T06:57:41.556Z,23.53
2018-11-13T07:00:10.467Z,23.03
2018-11-13T07:02:39.148Z,23.70
2018-11-13T07:05:11.676Z,24.80
2018-11-13T07:07:40.557Z,22.00
2018-11-13T07:10:11.245Z,23.03
2018-11-13T07:12:40.689Z,20.73
2018-11-13T07:15:11.323Z,19.27
2018-11-13T07:17:40.013Z,22.07
2018-11-13T07:20:08.458Z,19.97
2018-11-13T07:22:36.838Z,23.77
2018-11-13T07:25:05.427Z,18.03
2018-11-13T07:27:33.949Z,18.27
2018-11-13T07:30:02.315Z,15.57
2018-11-13T07:32:31.222Z,17.37
2018-11-13T07:34:59.588Z,17.20
2018-11-13T07:37:28.053Z,16.60
2018-11-13T07:39:56.280Z,14.50
2018-11-13T07:42:24.657Z,18.33
2018-11-13T07:44:53.065Z,17.07
2018-11-13T07:47:21.377Z,14.23
2018-11-13T07:49:49.939Z,16.70
2018-11-13T07:52:18.247Z,13.60
2018-11-13T07:54:46.520Z,14.73
2018-11-13T07:57:14.934Z,16.27
2018-11-13T07:59:43.252Z,12.33
2018-11-13T08:02:12.183Z,11.43
2018-11-13T08:04:40.549Z,16.10
2018-11-13T08:07:08.984Z,12.57
2018-11-13T08:09:37.462Z,10.70
2018-11-13T08:12:05.791Z,11.90
2018-11-13T08:14:34.209Z,12.57
2018-11-13T08:17:02.664Z,13.20
2018-11-13T08:19:31.070Z,13.80
2018-11-13T08:21:59.403Z,13.57
2018-11-13T08:24:27.812Z,14.87
2018-11-13T08:26:56.256Z,22.00
2018-11-13T08:29:24.557Z,15.43
2018-11-13T08:31:52.998Z,14.00
2018-11-13T08:34:21.287Z,13.13
2018-11-13T08:36:49.694Z,10.70
2018-11-13T08:39:17.912Z,11.90
2018-11-13T08:41:46.207Z,9.40
2018-11-13T08:44:14.635Z,10.07
2018-11-13T08:46:42.819Z,9.27
2018-11-13T08:49:11.077Z,11.33
2018-11-13T08:51:39.483Z,6.03
2018-11-13T08:54:07.884Z,6.50
2018-11-13T08:56:36.104Z,6.43
2018-11-13T08:59:04.656Z,6.27
2018-11-13T09:01:32.865Z,6.30
2018-11-13T09:04:01.135Z,6.70
2018-11-13T09:06:29.508Z,8.20
2018-11-13T09:08:57.752Z,8.23
2018-11-13T09:11:25.964Z,10.03
2018-11-13T09:13:54.392Z,11.17
2018-11-13T09:16:22.655Z,10.67
2018-11-13T09:18:51.045Z,12.67
2018-11-13T09:21:19.459Z,16.00
2018-11-13T09:23:47.749Z,10.77
2018-11-13T09:26:16.029Z,11.40
2018-11-13T09:28:44.477Z,11.10
2018-11-13T09:31:12.936Z,15.07
2018-11-13T09:33:41.524Z,9.13
2018-11-13T09:36:09.899Z,8.70
2018-11-13T09:38:38.255Z,8.80
2018-11-13T09:41:06.671Z,11.50
2018-11-13T09:43:34.936Z,10.47
2018-11-13T09:46:04.468Z,8.60
2018-11-13T09:48:32.797Z,7.67
2018-11-13T09:51:01.163Z,11.47
2018-11-13T09:53:29.603Z,9.53
2018-11-13T09:55:57.880Z,7.10
2018-11-13T09:58:26.333Z,5.80
2018-11-13T10:00:54.939Z,5.47
2018-11-13T10:03:23.825Z,6.70
2018-11-13T10:05:51.700Z,7.10
2018-11-13T10:08:19.934Z,7.40
2018-11-13T10:10:48.288Z,6.27
2018-11-13T10:13:16.622Z,5.03
2018-11-13T10:15:44.898Z,5.87
2018-11-13T10:18:13.296Z,5.30
2018-11-13T10:20:41.677Z,5.30
2018-11-13T10:23:10.127Z,4.60
2018-11-13T10:25:38.421Z,6.37
2018-11-13T10:28:06.809Z,5.40
2018-11-13T10:30:35.287Z,7.80
2018-11-13T10:33:03.624Z,6.70
2018-11-13T10:35:31.875Z,10.47
2018-11-13T10:38:00.237Z,4.90
2018-11-13T10:40:28.632Z,5.30
2018-11-13T10:42:56.960Z,9.30
2018-11-13T10:45:26.669Z,11.43
2018-11-13T10:47:55.809Z,9.97
2018-11-13T10:50:25.430Z,6.30
2018-11-13T10:52:53.911Z,7.47
2018-11-13T10:55:22.376Z,7.03
2018-11-13T10:57:50.801Z,9.10
2018-11-13T11:00:24.908Z,4.60
2018-11-13T11:02:59.166Z,9.57
2018-11-13T11:05:28.156Z,8.13
2018-11-13T11:07:57.655Z,4.70
2018-11-13T11:10:26.112Z,5.70
2018-11-13T11:12:54.633Z,5.23
2018-11-13T11:15:23.151Z,3.30
2018-11-13T11:17:51.661Z,6.80
2018-11-13T11:20:20.218Z,4.60
2018-11-13T11:22:54.904Z,4.83
2018-11-13T11:25:23.486Z,4.30
2018-11-13T11:27:52.872Z,5.00
2018-11-13T11:30:21.339Z,7.47
2018-11-13T11:32:49.759Z,3.80
2018-11-13T11:35:18.213Z,3.77
2018-11-13T11:37:46.812Z,4.17
2018-11-13T11:40:15.216Z,4.50
2018-11-13T11:42:44.532Z,5.00
2018-11-13T11:45:13.820Z,4.17
2018-11-13T11:47:42.839Z,3.37
2018-11-13T11:50:13.920Z,4.60
2018-11-13T11:52:42.434Z,3.07
2018-11-13T11:55:11.774Z,3.33
2018-11-13T11:57:40.147Z,6.83
2018-11-13T12:00:12.223Z,4.60
2018-11-13T12:02:41.305Z,3.00
2018-11-13T12:05:10.046Z,5.93
2018-11-13T12:07:38.509Z,3.00
2018-11-13T12:10:09.973Z,6.47
2018-11-13T12:12:38.767Z,5.17
2018-11-13T12:15:09.219Z,4.57
2018-11-13T12:17:37.745Z,4.77
2018-11-13T12:20:09.124Z,8.07
2018-11-13T12:22:37.484Z,5.20
2018-11-13T12:25:09.916Z,6.40
2018-11-13T12:27:38.392Z,4.10
2018-11-13T12:30:11.221Z,9.03
2018-11-13T12:32:39.629Z,6.23
2018-11-13T12:35:10.265Z,5.17
2018-11-13T12:37:38.774Z,4.57
2018-11-13T12:40:10.466Z,5.93
2018-11-13T12:42:38.993Z,7.87
2018-11-13T12:45:08.120Z,5.40
2018-11-13T12:47:37.044Z,4.80
2018-11-13T12:50:07.872Z,8.70
2018-11-13T12:52:37.296Z,6.60
2018-11-13T12:55:09.276Z,7.00
2018-11-13T12:57:37.760Z,7.00
2018-11-13T13:00:13.509Z,7.90
2018-11-13T13:02:41.920Z,6.30
2018-11-13T13:05:10.380Z,6.20
2018-11-13T13:07:38.839Z,6.17
2018-11-13T13:10:10.054Z,4.17
2018-11-13T13:12:38.511Z,6.53
2018-11-13T13:15:09.984Z,3.70
2018-11-13T13:17:38.584Z,4.73
2018-11-13T13:20:10.637Z,4.77
2018-11-13T13:22:44.443Z,8.17
2018-11-13T13:25:14.377Z,4.00
2018-11-13T13:27:42.690Z,3.97
2018-11-13T13:30:16.302Z,7.60
2018-11-13T13:32:45.445Z,7.80
2018-11-13T13:35:54.773Z,3.90
2018-11-13T13:38:23.106Z,6.23
2018-11-13T13:40:52.595Z,13.17
2018-11-13T13:43:21.770Z,5.70
2018-11-13T13:45:50.443Z,5.70
2018-11-13T13:48:19.061Z,4.37
2018-11-13T13:50:47.459Z,10.30
2018-11-13T13:53:17.093Z,6.17
2018-11-13T13:55:45.825Z,4.67
2018-11-13T13:58:14.945Z,2.97
2018-11-13T14:00:43.406Z,9.50
2018-11-13T14:03:12.920Z,4.93
2018-11-13T14:05:44.895Z,6.03
2018-11-13T14:08:14.156Z,4.93
2018-11-13T14:10:42.419Z,6.30
2018-11-13T14:13:11.083Z,7.73
2018-11-13T14:15:39.493Z,8.90
2018-11-13T14:18:07.867Z,4.30
2018-11-13T14:20:36.804Z,8.00
2018-11-13T14:23:05.281Z,3.80
2018-11-13T14:25:33.526Z,7.00
2018-11-13T14:28:01.929Z,4.53
2018-11-13T14:30:31.470Z,6.87
2018-11-13T14:33:01.206Z,3.40
2018-11-13T14:35:29.536Z,5.87
2018-11-13T14:37:58.080Z,4.80
2018-11-13T14:40:30.985Z,9.53
2018-11-13T14:42:59.761Z,6.60
2018-11-13T14:45:28.438Z,4.63
2018-11-13T14:47:57.055Z,7.90
2018-11-13T14:50:28.038Z,7.10
2018-11-13T14:52:56.820Z,3.90
2018-11-13T14:55:30.932Z,7.03
2018-11-13T14:58:00.428Z,3.33
2018-11-13T15:00:29.899Z,5.90
2018-11-13T15:02:58.873Z,4.60
2018-11-13T15:05:28.016Z,7.17
2018-11-13T15:07:57.864Z,5.17
2018-11-13T15:10:33.738Z,5.33
2018-11-13T15:13:02.052Z,5.40
2018-11-13T15:15:30.393Z,9.17
2018-11-13T15:17:58.873Z,8.07
2018-11-13T15:20:27.178Z,7.33
2018-11-13T15:22:55.431Z,4.30
2018-11-13T15:25:24.042Z,5.60
2018-11-13T15:27:52.438Z,8.07
2018-11-13T15:30:24.048Z,7.53
2018-11-13T15:32:58.467Z,5.70
2018-11-13T15:35:26.840Z,7.33
2018-11-13T15:37:55.061Z,8.03
2018-11-13T15:40:25.776Z,11.70
2018-11-13T15:42:53.992Z,9.47
2018-11-13T15:45:22.280Z,7.57
2018-11-13T15:47:51.488Z,7.17
2018-11-13T15:50:22.896Z,7.03
2018-11-13T15:52:51.311Z,6.33
2018-11-13T15:55:19.519Z,5.07
2018-11-13T15:57:48.107Z,6.73
2018-11-13T16:00:20.623Z,7.30
2018-11-13T16:02:49.149Z,7.63
2018-11-13T16:05:22.832Z,5.17
2018-11-13T16:07:52.702Z,9.28
2018-11-13T16:10:20.949Z,5.77
2018-11-13T16:12:49.533Z,6.50
2018-11-13T16:15:19.826Z,9.27
2018-11-13T16:17:48.882Z,9.80
2018-11-13T16:20:17.487Z,10.53
2018-11-13T16:22:45.827Z,8.43
2018-11-13T16:25:14.204Z,9.70
2018-11-13T16:27:42.558Z,11.77
2018-11-13T16:30:13.511Z,8.37
2018-11-13T16:32:42.733Z,7.07
2018-11-13T16:35:12.548Z,12.27
2018-11-13T16:37:42.335Z,9.13
2018-11-13T16:40:14.374Z,11.27
2018-11-13T16:42:42.826Z,7.77
2018-11-13T16:45:12.741Z,4.23
2018-11-13T16:47:41.075Z,6.53
2018-11-13T16:50:14.642Z,6.90
2018-11-13T16:52:43.298Z,10.40
2018-11-13T16:55:16.208Z,8.23
2018-11-13T16:57:44.588Z,6.87
2018-11-13T17:00:12.990Z,12.97
2018-11-13T17:02:41.246Z,7.73
2018-11-13T17:05:12.089Z,7.80
2018-11-13T17:07:40.849Z,7.07
2018-11-13T17:10:12.915Z,15.30
2018-11-13T17:12:41.367Z,14.53
2018-11-13T17:15:14.024Z,14.03
2018-11-13T17:17:43.179Z,5.90
2018-11-13T17:20:12.461Z,6.83
2018-11-13T17:22:41.239Z,9.03
2018-11-13T17:25:10.785Z,8.87
2018-11-13T17:27:40.371Z,8.50
2018-11-13T17:30:19.405Z,9.10
2018-11-13T17:32:47.770Z,14.70
2018-11-13T17:35:17.380Z,10.03
2018-11-13T17:37:46.479Z,9.53
2018-11-13T17:40:20.324Z,9.40
2018-11-13T17:42:49.590Z,8.77
2018-11-13T17:45:21.106Z,7.77
2018-11-13T17:47:49.404Z,8.30
2018-11-13T17:50:21.083Z,14.27
2018-11-13T17:52:49.813Z,10.13
2018-11-13T17:55:18.780Z,7.87
2018-11-13T17:57:48.361Z,8.10
2018-11-13T18:00:20.835Z,8.00
2018-11-13T18:02:49.410Z,8.80
2018-11-13T18:05:19.077Z,9.17
2018-11-13T18:07:47.640Z,10.47
2018-11-13T18:10:16.081Z,6.63
2018-11-13T18:12:44.391Z,11.97
2018-11-13T18:15:14.367Z,9.47
2018-11-13T18:17:43.139Z,7.80
2018-11-13T18:20:14.252Z,10.93
2018-11-13T18:22:43.156Z,11.00
2018-11-13T18:25:11.534Z,9.87
2018-11-13T18:27:41.416Z,11.40
2018-11-13T18:30:15.017Z,11.53
2018-11-13T18:32:43.961Z,13.10
2018-11-13T18:35:14.915Z,10.10
2018-11-13T18:37:43.954Z,12.70
2018-11-13T18:40:14.665Z,9.30
2018-11-13T18:42:44.775Z,10.47
2018-11-13T18:45:17.550Z,12.43
2018-11-13T18:47:46.408Z,9.47
2018-11-13T18:50:17.880Z,10.27
2018-11-13T18:52:46.684Z,16.47
2018-11-13T18:55:15.721Z,8.90
2018-11-13T18:57:44.258Z,17.50
2018-11-13T19:00:16.657Z,14.67
2018-11-13T19:02:44.971Z,16.53
2018-11-13T19:05:14.069Z,20.30
2018-11-13T19:07:42.859Z,13.00
2018-11-13T19:10:20.545Z,12.10
2018-11-13T19:12:50.657Z,15.90
2018-11-13T19:15:19.464Z,16.53
2018-11-13T19:17:47.870Z,14.40
2018-11-13T19:20:18.034Z,10.70
2018-11-13T19:22:46.263Z,14.00
2018-11-13T19:25:16.995Z,15.13
2018-11-13T19:27:46.224Z,13.57
2018-11-13T19:30:15.550Z,14.03
2018-11-13T19:32:43.878Z,10.80
2018-11-13T19:35:15.389Z,20.10
2018-11-13T19:37:43.923Z,11.37
2018-11-13T19:40:15.546Z,10.23
2018-11-13T19:42:44.648Z,19.60
2018-11-13T19:45:13.161Z,11.73
2018-11-13T19:47:41.468Z,10.67
2018-11-13T19:50:12.896Z,10.87
2018-11-13T19:52:41.727Z,12.97
2018-11-13T19:55:11.293Z,18.50
2018-11-13T19:57:40.175Z,16.83
2018-11-13T20:00:12.457Z,11.63
2018-11-13T20:02:40.744Z,18.27
2018-11-13T20:05:11.514Z,12.47
2018-11-13T20:07:39.944Z,11.87
2018-11-13T20:10:13.815Z,14.50
2018-11-13T20:12:42.276Z,22.80
2018-11-13T20:15:11.567Z,14.77
2018-11-13T20:17:40.061Z,20.90
2018-11-13T20:20:11.970Z,12.03
2018-11-13T20:22:40.529Z,12.90
2018-11-13T20:25:12.240Z,15.97
2018-11-13T20:27:40.823Z,17.17
2018-11-13T20:30:16.884Z,14.20
2018-11-13T20:32:45.880Z,13.67
2018-11-13T20:35:14.158Z,13.30
2018-11-13T20:37:43.743Z,18.27
2018-11-13T20:40:13.798Z,17.00
2018-11-13T20:42:42.929Z,15.80
2018-11-13T20:45:11.793Z,21.20
2018-11-13T20:47:40.268Z,11.77
2018-11-13T20:50:11.452Z,10.23
2018-11-13T20:52:39.854Z,19.53
2018-11-13T20:55:08.674Z,20.40
2018-11-13T20:57:37.076Z,16.40
2018-11-13T21:00:16.720Z,11.63
2018-11-13T21:02:45.077Z,12.00
2018-11-13T21:05:13.677Z,17.73
2018-11-13T21:07:42.111Z,20.10
2018-11-13T21:10:14.041Z,15.00
2018-11-13T21:12:42.955Z,19.73
2018-11-13T21:15:13.821Z,18.43
2018-11-13T21:17:42.079Z,20.03
2018-11-13T21:20:13.389Z,17.37
2018-11-13T21:22:41.728Z,18.53
2018-11-13T21:25:12.764Z,16.90
2018-11-13T21:27:41.406Z,21.93
2018-11-13T21:30:18.402Z,17.93
2018-11-13T21:32:47.270Z,15.60
2018-11-13T21:35:16.019Z,13.40
2018-11-13T21:37:45.706Z,14.30
2018-11-13T21:40:15.320Z,20.20
2018-11-13T21:42:44.761Z,14.60
2018-11-13T21:45:13.690Z,16.20
2018-11-13T21:47:42.415Z,16.27
2018-11-13T21:50:14.859Z,18.23
2018-11-13T21:52:43.107Z,18.60
2018-11-13T21:55:14.146Z,16.90
2018-11-13T21:57:42.625Z,20.67
2018-11-13T22:00:30.300Z,18.53
2018-11-13T22:03:02.778Z,17.93
2018-11-13T22:05:31.734Z,18.67
2018-11-13T22:08:00.040Z,27.70
2018-11-13T22:10:28.595Z,23.10
2018-11-13T22:12:57.020Z,17.23
2018-11-13T22:15:26.444Z,24.23
2018-11-13T22:17:54.819Z,18.83
2018-11-13T22:20:23.729Z,17.60
2018-11-13T22:22:53.865Z,20.07
2018-11-13T22:25:23.652Z,24.10
2018-11-13T22:27:53.341Z,16.53
2018-11-13T22:30:26.880Z,22.23
2018-11-13T22:32:55.890Z,26.33
2018-11-13T22:35:24.356Z,22.00
2018-11-13T22:37:52.607Z,19.43
2018-11-13T22:40:22.139Z,23.97
2018-11-13T22:42:51.099Z,20.27
2018-11-13T22:45:20.796Z,31.63
2018-11-13T22:47:48.993Z,22.43
2018-11-13T22:50:18.875Z,23.20
2018-11-13T22:52:47.444Z,17.13
2018-11-13T22:55:16.117Z,21.67
2018-11-13T22:57:45.016Z,23.13
2018-11-13T23:00:19.942Z,19.10
2018-11-13T23:02:49.641Z,22.80
2018-11-13T23:05:18.110Z,25.17
2018-11-13T23:07:47.228Z,20.87
2018-11-13T23:10:16.062Z,21.27
2018-11-13T23:12:44.662Z,28.67
2018-11-13T23:15:14.508Z,21.70
2018-11-13T23:17:43.121Z,17.30
2018-11-13T23:20:13.365Z,27.20
2018-11-13T23:22:41.643Z,28.57
2018-11-13T23:25:11.913Z,24.63
2018-11-13T23:27:40.698Z,23.20
2018-11-13T23:30:13.355Z,24.77
2018-11-13T23:32:41.778Z,28.47
2018-11-13T23:35:10.935Z,22.60
2018-11-13T23:37:39.471Z,27.80
2018-11-13T23:40:10.383Z,25.67
2018-11-13T23:42:40.347Z,26.60
2018-11-13T23:45:09.277Z,20.97
2018-11-13T23:47:37.638Z,22.63
2018-11-13T23:50:06.962Z,22.93
2018-11-13T23:52:35.245Z,21.20
2018-11-13T23:55:03.738Z,28.97
2018-11-13T23:57:31.927Z,24.33
